Time;durP1;ratioP1;P1;durP2;ratioP2;P2;SDS_P1;SDS_P2;PMS_P1;PMS_P2;Temp;Humidity;BMP_temperature;BMP_pressure;BME280_temperature;BME280_humidity;BME280_pressure;Samples;Min_cycle;Max_cycle;Signal;HPM_P1;HPM_P2
2022/08/16 00:05:07;;;;;;;24.80;14.60;;;;;;;19.68;70.91;97812.88;434183;1264;97894;-40
2022/08/16 00:15:21;;;;;;;15.80;12.90;;;;;;;19.63;71.12;97811.27;434765;1263;108791;-40
2022/08/16 00:25:29;;;;;;;18.50;14.40;;;;;;;19.51;71.10;97825.09;434200;1265;97902;-40
2022/08/16 00:35:56;;;;;;;20.20;16.90;;;;;;;19.11;71.50;97824.89;434467;1264;111000;-40
2022/08/16 00:46:06;;;;;;;17.80;13.40;;;;;;;18.75;71.33;97822.91;434353;1267;108523;-42
2022/08/16 00:56:36;;;;;;;22.30;14.60;;;;;;;18.62;72.30;97817.09;433946;1265;97471;-41
2022/08/16 01:07:03;;;;;;;19.10;12.70;;;;;;;18.65;72.60;97822.23;434767;1257;111286;-41
2022/08/16 01:17:12;;;;;;;18.80;14.70;;;;;;;18.56;72.63;97825.45;434786;1264;108790;-39
2022/08/16 01:27:25;;;;;;;24.40;15.50;;;;;;;18.35;73.00;97819.52;435104;1264;97474;-39
2022/08/16 01:37:42;;;;;;;21.70;16.00;;;;;;;18.25;73.23;97813.42;435076;1264;108781;-39
2022/08/16 01:47:51;;;;;;;21.00;15.30;;;;;;;18.33;73.79;97814.70;434630;1264;98178;-41
2022/08/16 01:57:58;;;;;;;20.60;14.30;;;;;;;18.17;73.58;97818.08;434638;1264;111218;-40
2022/08/16 02:08:06;;;;;;;19.70;14.30;;;;;;;18.14;74.27;97821.91;434685;1264;108803;-40
2022/08/16 02:18:33;;;;;;;21.40;13.90;;;;;;;18.21;74.30;97825.58;434489;1264;98168;-41
2022/08/16 02:28:41;;;;;;;19.00;12.70;;;;;;;18.27;74.58;97814.13;434735;1264;109173;-40
2022/08/16 02:38:53;;;;;;;19.50;14.00;;;;;;;18.34;75.18;97820.51;434293;1264;97903;-41
2022/08/16 02:49:01;;;;;;;20.20;14.30;;;;;;;18.44;75.33;97820.30;434426;1264;111293;-41
2022/08/16 02:59:07;;;;;;;19.10;13.40;;;;;;;18.38;75.32;97822.18;434785;1264;108243;-41
2022/08/16 03:09:20;;;;;;;18.90;14.40;;;;;;;18.21;75.22;97819.98;434873;1264;96657;-40
2022/08/16 03:19:28;;;;;;;24.70;13.80;;;;;;;17.95;75.07;97819.39;435055;1264;108761;-40
2022/08/16 03:29:55;;;;;;;24.70;15.40;;;;;;;17.56;75.07;97827.48;434797;1263;97910;-41
2022/08/16 03:40:03;;;;;;;21.50;14.40;;;;;;;17.48;75.84;97828.77;435018;1264;111017;-41
2022/08/16 03:50:11;;;;;;;23.40;17.00;;;;;;;17.46;75.93;97831.07;435330;1264;109585;-41
2022/08/16 04:00:32;;;;;;;28.60;16.70;;;;;;;17.44;76.57;97842.27;434881;1264;97811;-41
2022/08/16 04:10:48;;;;;;;24.40;15.80;;;;;;;17.67;76.85;97844.02;435025;1262;108824;-40
2022/08/16 04:20:57;;;;;;;22.30;13.90;;;;;;;17.90;76.66;97844.48;435164;1263;97483;-41
2022/08/16 04:31:05;;;;;;;22.20;15.20;;;;;;;18.11;76.75;97841.94;434840;1264;110051;-40
2022/08/16 04:41:16;;;;;;;22.80;15.30;;;;;;;19.39;76.78;97847.87;435250;1263;109193;-41
2022/08/16 04:51:23;;;;;;;24.30;15.00;;;;;;;20.83;75.66;97856.19;435080;1264;97565;-39
2022/08/16 05:01:31;;;;;;;21.80;16.70;;;;;;;21.44;74.25;97866.14;434274;1264;110883;-39
2022/08/16 05:11:58;;;;;;;21.60;16.00;;;;;;;22.46;74.06;97869.05;434802;1263;108790;-40
2022/08/16 05:22:06;;;;;;;24.90;15.70;;;;;;;23.63;73.01;97869.25;434421;1263;97876;-40
2022/08/16 05:32:24;;;;;;;20.40;15.40;;;;;;;24.33;72.48;97880.81;435209;1264;97518;-41
2022/08/16 05:42:40;;;;;;;22.90;17.20;;;;;;;25.10;71.84;97889.68;434906;1263;111169;-41
2022/08/16 05:52:55;;;;;;;17.10;15.30;;;;;;;25.70;71.05;97889.98;434847;1264;108918;-41
2022/08/16 06:03:03;;;;;;;18.20;15.00;;;;;;;26.59;70.19;97892.59;435018;1264;97516;-41
2022/08/16 06:13:18;;;;;;;22.30;17.30;;;;;;;26.43;68.44;97894.63;434883;1263;97874;-41
2022/08/16 06:23:26;;;;;;;24.10;19.00;;;;;;;25.98;67.88;97902.65;434781;1263;111155;-39
2022/08/16 06:33:38;;;;;;;26.40;18.70;;;;;;;25.60;67.45;97923.21;434750;1263;108824;-41
2022/08/16 06:43:47;;;;;;;26.00;18.30;;;;;;;24.98;67.77;97926.40;433741;1266;97602;-41
2022/08/16 06:53:57;;;;;;;26.30;17.20;;;;;;;25.13;68.52;97929.98;434029;1264;97899;-41
2022/08/16 07:04:06;;;;;;;21.60;15.50;;;;;;;26.00;68.91;97922.68;435349;1262;108806;-41
2022/08/16 07:14:18;;;;;;;16.90;15.10;;;;;;;27.64;68.50;97923.37;434855;1264;97903;-41
2022/08/16 07:24:34;;;;;;;16.00;14.10;;;;;;;28.56;66.46;97924.80;435259;1264;97524;-41
2022/08/16 07:34:51;;;;;;;16.10;14.10;;;;;;;29.13;64.59;97927.83;435122;1263;110899;-39
2022/08/16 07:44:59;;;;;;;18.20;13.20;;;;;;;29.36;63.08;97933.80;434890;1263;109132;-40
2022/08/16 07:55:08;;;;;;;19.10;13.40;;;;;;;29.35;61.91;97935.89;434992;1264;97922;-39
2022/08/16 08:05:14;;;;;;;14.80;12.70;;;;;;;29.57;61.50;97928.63;434819;1263;97887;-42
2022/08/16 08:25:40;;;;;;;15.40;13.40;;;;;;;30.29;60.04;97934.52;435206;1263;108574;-41
2022/08/16 08:36:03;;;;;;;15.40;13.20;;;;;;;30.23;59.01;97948.27;434892;1264;97917;-41
2022/08/16 08:46:10;;;;;;;15.00;13.40;;;;;;;30.20;57.80;97960.92;434928;1263;98678;-41
2022/08/16 08:56:24;;;;;;;15.00;13.60;;;;;;;29.98;57.83;97957.11;434863;1264;111110;-40
2022/08/16 09:06:32;;;;;;;16.50;14.70;;;;;;;30.56;57.49;97947.30;435076;1264;108892;-40
2022/08/16 09:16:40;;;;;;;15.30;13.60;;;;;;;30.80;56.61;97947.73;435155;1264;107806;-43
2022/08/16 09:27:05;;;;;;;13.00;11.80;;;;;;;30.11;55.00;97955.54;434043;1265;97895;-41
2022/08/16 09:37:14;;;;;;;13.70;12.20;;;;;;;30.20;55.22;97951.11;435138;1262;97480;-41
2022/08/16 09:47:26;;;;;;;11.50;10.40;;;;;;;30.44;54.88;97953.43;434774;1264;109234;-41
2022/08/16 09:57:54;;;;;;;15.50;10.70;;;;;;;30.71;53.75;97959.04;434990;1264;97683;-41
2022/08/16 10:08:03;;;;;;;12.50;11.20;;;;;;;30.04;53.71;97961.84;433843;1264;1624502;-41
2022/08/16 10:18:31;;;;;;;12.30;10.70;;;;;;;30.13;53.40;97962.65;434096;1265;108962;-42
2022/08/16 10:28:58;;;;;;;11.80;10.70;;;;;;;29.96;52.11;97967.14;434435;1265;97523;-41
2022/08/16 10:39:10;;;;;;;17.30;11.20;;;;;;;30.40;52.37;97966.95;434134;1266;112068;-42
2022/08/16 10:49:18;;;;;;;14.10;10.70;;;;;;;30.81;51.39;97956.93;434147;1267;107897;-41
2022/08/16 10:59:25;;;;;;;12.00;10.60;;;;;;;30.29;51.32;97973.71;434357;1264;98028;-41
2022/08/16 11:09:52;;;;;;;12.30;10.00;;;;;;;29.78;51.57;97968.95;434313;1264;111078;-40
2022/08/16 11:20:34;;;;;;;13.40;10.10;;;;;;;29.78;51.84;97964.52;434260;1264;108591;-40
2022/08/16 11:41:03;;;;;;;17.10;11.40;;;;;;;30.01;51.67;97953.11;434296;1264;111045;-41
2022/08/16 11:51:13;;;;;;;17.30;11.70;;;;;;;29.93;50.78;97938.75;435045;1263;109126;-42
2022/08/16 12:01:20;;;;;;;15.30;10.40;;;;;;;30.19;51.01;97933.98;434649;1263;97857;-41
2022/08/16 12:11:47;;;;;;;13.10;11.40;;;;;;;30.59;50.08;97925.51;433945;1263;97870;-40
2022/08/16 12:21:59;;;;;;;14.20;11.10;;;;;;;30.49;49.21;97936.95;435271;1263;111039;-40
2022/08/16 12:32:05;;;;;;;13.20;10.80;;;;;;;29.99;49.93;97929.39;435051;1264;108801;-41
2022/08/16 12:42:33;;;;;;;14.10;11.50;;;;;;;29.90;50.18;97924.16;435050;1264;108838;-44
2022/08/16 12:52:41;;;;;;;12.50;10.80;;;;;;;29.63;51.22;97937.34;434582;1264;97898;-43
2022/08/16 13:03:00;;;;;;;12.60;10.40;;;;;;;29.53;51.27;97929.13;434537;1264;110424;-41
2022/08/16 13:13:08;;;;;;;15.00;11.20;;;;;;;29.18;51.26;97929.60;434075;1264;109115;-40
2022/08/16 13:23:17;;;;;;;5.40;4.80;;;;;;;28.27;50.92;97954.95;435074;1264;97493;-40
2022/08/16 13:43:37;;;;;;;11.90;7.40;;;;;;;24.52;53.51;97973.79;434927;1263;111009;-39
2022/08/16 13:53:44;;;;;;;13.90;8.80;;;;;;;23.70;56.19;97966.64;434769;1264;108783;-40
2022/08/16 14:04:06;;;;;;;13.50;8.90;;;;;;;23.61;58.78;97955.06;434227;1264;97878;-40
2022/08/16 14:14:13;;;;;;;13.30;8.70;;;;;;;24.00;60.56;97955.52;434960;1264;111030;-40
2022/08/16 14:24:21;;;;;;;10.30;7.90;;;;;;;24.06;61.74;97950.34;434837;1264;109265;-40
2022/08/16 14:34:36;;;;;;;8.70;7.70;;;;;;;23.97;62.38;97940.38;434543;1264;98019;-40
2022/08/16 14:44:43;;;;;;;12.20;8.70;;;;;;;24.01;64.21;97927.23;435068;1263;110774;-39
2022/08/16 15:05:00;;;;;;;12.30;9.70;;;;;;;24.10;65.48;97924.62;434695;1264;111080;-40
2022/08/16 15:15:12;;;;;;;17.50;10.40;;;;;;;23.95;65.84;97914.63;435062;1264;108831;-41
2022/08/16 15:25:25;;;;;;;13.40;10.60;;;;;;;24.03;66.80;97937.03;434981;1264;98053;-39
2022/08/16 15:35:36;;;;;;;13.00;11.00;;;;;;;24.30;67.09;97969.58;435111;1263;109226;-40
2022/08/16 15:56:07;;;;;;;13.70;9.20;;;;;;;24.11;67.45;98002.44;434910;1263;97487;-40
2022/08/16 16:16:22;;;;;;;14.40;11.60;;;;;;;23.79;68.34;98000.54;434335;1264;98126;-40
2022/08/16 16:26:30;;;;;;;13.70;11.60;;;;;;;23.57;68.19;98001.95;434264;1264;110712;-40
2022/08/16 16:36:40;;;;;;;12.80;11.40;;;;;;;23.46;68.54;97999.14;434336;1264;108815;-41
2022/08/16 16:46:54;;;;;;;16.50;13.20;;;;;;;23.31;68.80;98002.52;434761;1264;98006;-39
2022/08/16 16:57:03;;;;;;;15.80;14.00;;;;;;;23.27;69.32;97996.20;434883;1264;108966;-39
2022/08/16 17:07:11;;;;;;;16.60;13.90;;;;;;;23.32;69.74;97983.80;434966;1264;96659;-40
2022/08/16 17:17:18;;;;;;;17.20;12.80;;;;;;;22.98;69.83;97994.93;435028;1264;111206;-39
2022/08/16 17:27:26;;;;;;;15.60;13.60;;;;;;;22.65;70.51;98004.45;435007;1265;108612;-39
2022/08/16 17:37:41;;;;;;;16.70;14.60;;;;;;;22.61;71.15;98008.27;434366;1264;97514;-39
2022/08/16 17:58:13;;;;;;;20.70;12.00;;;;;;;22.43;71.92;98001.15;434484;1264;97507;-41
2022/08/16 18:08:29;;;;;;;17.70;14.20;;;;;;;22.40;72.31;98006.95;434449;1264;110186;-40
2022/08/16 18:18:37;;;;;;;17.30;13.70;;;;;;;22.24;72.55;98020.46;434546;1265;109317;-41
2022/08/16 18:28:44;;;;;;;17.10;14.90;;;;;;;22.18;72.84;98025.64;434486;1264;96603;-40
2022/08/16 18:38:53;;;;;;;16.70;14.30;;;;;;;22.10;73.03;98029.62;434702;1264;108776;-40
2022/08/16 18:49:00;;;;;;;20.90;15.90;;;;;;;21.92;73.18;98038.60;434558;1264;98589;-39
2022/08/16 18:59:07;;;;;;;21.60;17.10;;;;;;;21.81;73.50;98042.48;434782;1264;111104;-39
2022/08/16 19:09:14;;;;;;;21.60;16.60;;;;;;;21.62;73.73;98046.59;434722;1265;107850;-39
2022/08/16 19:19:21;;;;;;;19.10;16.70;;;;;;;21.63;74.02;98054.98;434576;1265;97950;-42
2022/08/16 19:29:28;;;;;;;23.50;16.40;;;;;;;21.50;74.35;98059.85;434920;1263;109880;-39
2022/08/16 19:49:42;;;;;;;23.40;18.40;;;;;;;21.43;74.73;98070.83;434723;1263;111078;-39
2022/08/16 19:59:50;;;;;;;27.10;20.10;;;;;;;21.15;74.68;98079.19;434882;1264;107924;-42
2022/08/16 20:09:58;;;;;;;26.10;20.20;;;;;;;21.08;75.43;98078.92;434506;1264;97903;-41
2022/08/16 20:20:05;;;;;;;26.00;21.60;;;;;;;20.98;75.29;98089.71;434103;1263;108901;-41
2022/08/16 20:30:17;;;;;;;31.40;21.80;;;;;;;20.74;75.52;98098.08;434169;1264;96679;-41
2022/08/16 20:50:42;;;;;;;23.60;18.10;;;;;;;20.67;76.13;98108.22;434386;1264;108171;-40
2022/08/16 21:00:49;;;;;;;30.40;22.60;;;;;;;20.54;76.09;98107.04;435201;1264;97851;-41
2022/08/16 21:10:57;;;;;;;34.30;22.80;;;;;;;20.40;76.25;98110.77;434759;1264;108857;-40
2022/08/16 21:21:04;;;;;;;31.00;21.70;;;;;;;20.15;76.31;98115.46;435174;1264;97940;-41
2022/08/16 21:31:11;;;;;;;26.40;18.50;;;;;;;20.05;76.88;98112.76;434827;1264;110651;-40
2022/08/16 21:41:18;;;;;;;26.00;21.80;;;;;;;20.05;76.84;98112.80;435111;1264;109331;-40
2022/08/16 21:51:24;;;;;;;24.80;21.30;;;;;;;19.98;77.25;98112.48;434383;1264;97513;-40
2022/08/16 22:01:31;;;;;;;27.10;20.40;;;;;;;19.98;77.23;98105.66;433603;1264;1937831;-40
2022/08/16 22:11:39;;;;;;;23.30;20.80;;;;;;;20.04;77.60;98105.64;434161;1264;98052;-42
2022/08/16 22:21:46;;;;;;;25.40;19.50;;;;;;;20.11;77.62;98113.00;434850;1264;111055;-40
2022/08/16 22:31:53;;;;;;;25.00;20.30;;;;;;;19.93;77.61;98112.68;434649;1264;108889;-40
2022/08/16 22:52:14;;;;;;;31.10;24.70;;;;;;;19.64;78.09;98103.70;434762;1264;108946;-41
2022/08/16 23:02:54;;;;;;;28.90;22.20;;;;;;;19.68;78.21;98094.45;435084;1264;97535;-42
2022/08/16 23:13:04;;;;;;;36.10;25.30;;;;;;;19.60;78.15;98084.31;434821;1264;111201;-41
2022/08/16 23:23:13;;;;;;;33.10;23.10;;;;;;;19.50;78.47;98080.68;435149;1264;108777;-41
2022/08/16 23:33:28;;;;;;;27.00;22.30;;;;;;;19.56;78.67;98082.39;435099;1264;97557;-41
2022/08/16 23:53:46;;;;;;;27.80;21.80;;;;;;;19.44;78.50;98077.28;434833;1264;97897;-42
